Flight Track Log - Related Links

Times and Time Zones

All times are in EDT time to prevent confusion due to time zone crossing. See the TCF3913 flight status page for this flight to view local times or setup timezone preferences in your user account.

Time Position Orientation Groundspeed Altitude Reporting Facility
EDT Latitude Longitude Course Direction KTS MPH feet Rate Location/Type
Sun 10:12:41 PM 39.8000 -104.6167 85° East 191 220 6,800  Level Denver TRACON
Sun 10:13:41 PM 39.7500 -104.5667 142° Southeast 249 287 8,200 1,810 Climbing Denver TRACON
Sun 10:14:00 PM 39.8667 -104.2000 90° East  Level FlightAware Approximate
Sun 10:14:47 PM 39.7167 -104.4833 117° Southeast 296 341 10,600  Level Denver TRACON
Sun 10:15:00 PM 39.8667 -104.0440 90° East  Level FlightAware Approximate
Sun 10:16:00 PM 39.8667 -103.8880 90° East  Level FlightAware Approximate
Sun 10:16:10 PM 39.7231 -104.3269 87° East 305 351 13,700  Level Denver Center
Sun 10:17:00 PM 39.8828 -103.7354 72° East  Level FlightAware Approximate
Sun 10:17:12 PM 39.6942 -104.2056 107° East 332 382 15,900  Level Denver Center
Sun 10:18:00 PM 39.8933 -103.5847 85° East  Level FlightAware Approximate
Sun 10:18:13 PM 39.6606 -104.0853 110° East 356 410 17,200  Level Denver Center
Sun 10:19:15 PM 39.6231 -103.9558 111° Southeast 382 440 18,900 1,839 Climbing Denver Center
Sun 10:20:17 PM 39.5825 -103.8108 110° East 399 459 21,000 1,805 Climbing Denver Center
Sun 10:21:18 PM 39.5300 -103.6836 118° Southeast 386 444 22,600 1,463 Climbing Denver Center
Sun 10:22:20 PM 39.4761 -103.5489 117° Southeast 414 476 24,000 1,645 Climbing Denver Center
Sun 10:23:22 PM 39.4256 -103.4111 115° Southeast 422 486 26,000 1,610 Climbing Denver Center
Sun 10:24:23 PM 39.3722 -103.2800 118° Southeast 412 474 27,300 1,220 Climbing Denver Center
Sun 10:25:25 PM 39.3317 -103.1431 111° Southeast 416 479 28,500 1,016 Climbing Denver Center
Sun 10:26:27 PM 39.3133 -102.9914 99° East 427 491 29,400 829 Climbing Denver Center
Sun 10:27:28 PM 39.2950 -102.8053 97° East 437 503 30,200 634 Climbing Denver Center
Sun 10:28:30 PM 39.2806 -102.6406 96° East 451 519 30,700 387 Climbing Denver Center
Sun 10:29:32 PM 39.2892 -102.4853 86° East 454 522 31,000 146 Climbing Denver Center
Sun 10:30:33 PM 39.3181 -102.3294 76° East 463 533 31,000 98 Level Denver Center
Sun 10:31:35 PM 39.3494 -102.1431 78° East 473 544 31,200 484 Climbing Denver Center
Sun 10:32:37 PM 39.3767 -101.9839 77° East 474 545 32,000 878 Climbing Denver Center
Sun 10:33:38 PM 39.4072 -101.7983 78° East 474 545 33,000 732 Climbing Denver Center
Sun 10:34:40 PM 39.4344 -101.6400 77° East 473 544 33,500 634 Climbing Denver Center
Sun 10:35:41 PM 39.4650 -101.4517 78° East 477 549 34,300 732 Climbing Denver Center
Sun 10:36:43 PM 39.4908 -101.2936 78° East 472 543 35,000 341 Climbing Denver Center
Sun 10:37:44 PM 39.5175 -101.1311 78° East 480 552 35,000  Level Denver Center
Sun 10:38:46 PM 39.5481 -100.9372 78° East 491 565 35,000  Level Denver Center
Sun 10:39:47 PM 39.5750 -100.7694 78° East 497 572 35,000  Level Denver Center
Sun 10:40:49 PM 39.6058 -100.5736 78° East 499 574 35,000  Level Denver Center
Sun 10:41:50 PM 39.6311 -100.4056 79° East 497 572 35,000  Level Denver Center
Sun 10:42:52 PM 39.6614 -100.2089 79° East 499 574 35,000  Level Denver Center
Sun 10:43:53 PM 39.6869 -100.0411 79° East 497 572 35,000  Level Denver Center
Sun 10:44:55 PM 39.7122 -99.8725 79° East 496 571 35,000  Level Denver Center
Sun 10:45:56 PM 39.7386 -99.6981 79° East 493 567 35,000  Level Denver Center
Sun 10:46:58 PM 39.7639 -99.5219 79° East 497 572 35,000  Level Denver Center
Sun 10:47:59 PM 39.7947 -99.3142 79° East 490 564 35,000  Level Denver Center
Sun 10:49:01 PM 39.8194 -99.1394 80° East 492 566 35,000  Level Denver Center
Sun 10:50:02 PM 39.8442 -98.9636 80° East 495 570 35,000  Level Denver Center
Sun 10:51:09 PM 39.8686 -98.7908 80° East 492 566 35,000  Level Minneapolis Center
Sun 10:52:10 PM 39.8919 -98.6164 80° East 491 565 35,000  Level Minneapolis Center
Sun 10:53:11 PM 39.9214 -98.4075 80° East 491 565 35,000  Level Minneapolis Center
Sun 10:54:12 PM 39.9453 -98.2308 80° East 494 568 35,000  Level Minneapolis Center
Sun 10:55:14 PM 39.9686 -98.0542 80° East 496 571 35,000  Level Minneapolis Center
Sun 10:56:15 PM 39.9922 -97.8775 80° East 497 572 35,000  Level Minneapolis Center
Sun 10:57:16 PM 40.0153 -97.7011 80° East 497 572 35,000  Level Minneapolis Center
Sun 10:58:18 PM 40.0383 -97.5239 80° East 497 572 35,000  Level Minneapolis Center
Sun 10:59:19 PM 40.0600 -97.3489 81° East 492 566 35,000  Level Minneapolis Center
Sun 11:00:23 PM 40.0853 -97.1481 81° East 491 565 35,000  Level Minneapolis Center
Sun 11:01:25 PM 40.1083 -96.9731 80° East 490 564 35,000  Level Minneapolis Center
Sun 11:02:26 PM 40.1283 -96.7978 81° East 490 564 35,000  Level Minneapolis Center
Sun 11:03:27 PM 40.1494 -96.6242 81° East 487 560 35,000  Level Minneapolis Center
Sun 11:04:29 PM 40.1703 -96.4514 81° East 484 557 35,000  Level Minneapolis Center
Sun 11:05:30 PM 40.1903 -96.2781 81° East 485 558 35,000  Level Minneapolis Center
Sun 11:06:31 PM 40.1989 -96.0667 87° East 488 562 35,000  Level Minneapolis Center
Sun 11:07:33 PM 40.1981 -95.8894 90° East 489 563 35,000  Level Minneapolis Center
Sun 11:08:34 PM 40.1983 -95.7103 90° East 493 567 35,000  Level Minneapolis Center
Sun 11:09:35 PM 40.1969 -95.5358 91° East 487 560 35,000  Level Minneapolis Center
Sun 11:10:37 PM 40.1944 -95.3589 91° East 489 563 35,000  Level Minneapolis Center
Sun 11:11:38 PM 40.1931 -95.1825 91° East 487 560 35,000  Level Minneapolis Center
Sun 11:12:12 PM 40.1908 -95.0719 91° East 484 557 35,000  Level Kansas City Center
Sun 11:13:13 PM 40.1886 -94.9022 91° East 484 557 35,000  Level Kansas City Center
Sun 11:14:14 PM 40.1872 -94.7372 91° East 477 549 35,000  Level Kansas City Center
Sun 11:15:15 PM 40.1847 -94.5425 91° East 478 550 35,000  Level Kansas City Center
Sun 11:16:16 PM 40.1814 -94.3739 91° East 482 555 35,000  Level Kansas City Center
Sun 11:17:17 PM 40.1775 -94.2058 92° East 483 556 35,000  Level Kansas City Center
Sun 11:18:18 PM 40.1708 -94.0136 93° East 482 555 35,000  Level Kansas City Center
Sun 11:19:19 PM 40.1678 -93.8417 91° East 481 554 35,000  Level Kansas City Center
Sun 11:20:20 PM 40.1633 -93.6703 92° East 478 550 35,000  Level Kansas City Center
Sun 11:21:21 PM 40.1603 -93.4986 91° East 478 550 35,000  Level Kansas City Center
Sun 11:22:22 PM 40.1558 -93.3275 92° East 476 548 35,000  Level Kansas City Center
Sun 11:23:23 PM 40.1506 -93.1589 92° East 471 542 35,000  Level Kansas City Center
Sun 11:24:24 PM 40.1450 -92.9650 92° East 469 540 35,000  Level Kansas City Center
Sun 11:25:25 PM 40.1403 -92.8025 92° East 466 536 35,000  Level Kansas City Center
Sun 11:26:26 PM 40.1331 -92.6106 93° East 472 543 35,000  Level Kansas City Center
Sun 11:27:27 PM 40.1203 -92.4464 96° East 473 544 35,000  Level Kansas City Center
Sun 11:28:28 PM 40.1072 -92.2919 96° East 472 543 35,000  Level Kansas City Center
Sun 11:29:29 PM 40.0925 -92.1253 97° East 469 540 35,000  Level Kansas City Center
Sun 11:30:30 PM 40.0719 -91.9222 97° East 474 545 35,000  Level Kansas City Center
Sun 11:31:31 PM 40.0558 -91.7533 97° East 474 545 35,000  Level Kansas City Center
Sun 11:32:32 PM 40.0403 -91.5842 97° East 476 548 35,000  Level Kansas City Center
Sun 11:33:33 PM 40.0247 -91.4147 97° East 474 545 35,000  Level Kansas City Center
Sun 11:34:33 PM 40.0075 -91.2467 98° East 474 545 35,000  Level Kansas City Center
Sun 11:35:34 PM 39.9906 -91.0778 97° East 474 545 35,000  Level Kansas City Center
Sun 11:36:35 PM 39.9706 -90.8864 98° East 474 545 35,000  Level Kansas City Center
Sun 11:37:36 PM 39.9525 -90.7169 98° East 473 544 35,000  Level Kansas City Center
Sun 11:38:37 PM 39.9356 -90.5472 97° East 476 548 35,000  Level Kansas City Center
Sun 11:39:38 PM 39.9164 -90.3781 98° East 476 548 35,000  Level Kansas City Center
Sun 11:40:39 PM 39.8986 -90.2092 98° East 474 545 35,000  Level Kansas City Center
Sun 11:41:40 PM 39.8794 -90.0394 98° East 476 548 35,000  Level Kansas City Center
Sun 11:42:41 PM 39.8603 -89.8708 98° East 475 547 35,000  Level Kansas City Center
Sun 11:43:42 PM 39.8425 -89.7031 98° East 473 544 35,000  Level Kansas City Center
Sun 11:44:43 PM 39.8397 -89.5331 91° East 471 542 35,000  Level Kansas City Center
Sun 11:45:44 PM 39.8403 -89.3647 90° East 470 541 35,000  Level Kansas City Center
Sun 11:46:45 PM 39.8411 -89.1633 90° East 466 536 35,000  Level Kansas City Center
Sun 11:47:45 PM 39.8417 -88.9972 90° East 464 534 35,000  Level Kansas City Center
Sun 11:48:46 PM 39.8425 -88.8314 90° East 461 531 35,000  Level Kansas City Center
Sun 11:49:47 PM 39.8411 -88.6653 91° East 461 531 35,000  Level Kansas City Center
Sun 11:50:48 PM 39.8417 -88.5014 90° East 457 526 35,000  Level Kansas City Center
Sun 11:51:49 PM 39.8411 -88.3356 90° East 458 527 35,000  Level Kansas City Center
Sun 11:52:50 PM 39.8411 -88.1692 90° East 456 525 35,000  Level Kansas City Center
Sun 11:53:51 PM 39.8397 -88.0042 91° East 455 524 35,000  Level Kansas City Center
Sun 11:54:47 PM 39.8364 -87.8344 91° East 457 526 35,000  Level Indianapolis Center
Sun 11:55:48 PM 39.8353 -87.6694 90° East 458 527 35,000  Level Indianapolis Center
Sun 11:56:49 PM 39.8328 -87.5067 91° East 453 521 35,000  Level Indianapolis Center
Sun 11:57:49 PM 39.8311 -87.3428 91° East 454 522 35,000  Level Indianapolis Center
Sun 11:58:50 PM 39.8292 -87.1783 91° East 456 525 35,000  Level Indianapolis Center
Sun 11:59:51 PM 39.8278 -87.0136 91° East 457 526 35,000  Level Indianapolis Center
Mon 12:00:51 AM 39.8244 -86.8472 91° East 461 531 35,000  Level Indianapolis Center
Mon 12:01:52 AM 39.8208 -86.6833 92° East 456 525 35,000  Level Indianapolis Center
Mon 12:02:53 AM 39.8183 -86.5197 91° East 454 522 35,000  Level Indianapolis Center
Mon 12:03:53 AM 39.8192 -86.3486 90° East 459 528 35,000 -545 Level Indianapolis Center
Mon 12:04:54 AM 39.8531 -86.1892 74° East 450 518 33,900 -992 Descending Indianapolis Center
Mon 12:05:54 AM 39.8861 -86.0319 75° East 447 514 33,000 -446 Descending Indianapolis Center
Mon 12:06:55 AM 39.9181 -85.8764 75° East 446 513 33,000  Level Indianapolis Center
Mon 12:07:56 AM 39.9511 -85.7206 74° East 447 514 33,000  Level Indianapolis Center
Mon 12:08:56 AM 39.9681 -85.5578 82° East 452 520 33,000  Level Indianapolis Center
Mon 12:09:57 AM 39.9703 -85.3881 89° East 465 535 33,000 -496 Level Indianapolis Center
Mon 12:10:57 AM 39.9728 -85.2203 89° East 466 536 32,000 -992 Descending Indianapolis Center
Mon 12:11:58 AM 39.9772 -85.0508 88° East 468 539 31,000 -1,091 Descending Indianapolis Center
Mon 12:12:58 AM 39.9792 -84.8678 89° East 457 526 29,800 -1,537 Descending Indianapolis Center
Mon 12:13:59 AM 39.9831 -84.7022 88° East 453 521 27,900 -2,083 Descending Indianapolis Center
Mon 12:14:59 AM 39.9858 -84.5414 89° East 441 507 25,600 -2,281 Descending Indianapolis Center
Mon 12:16:00 AM 39.9886 -84.3850 89° East 428 493 23,300 -2,231 Descending Indianapolis Center
Mon 12:17:00 AM 39.9900 -84.2339 89° East 414 476 21,100 -2,132 Descending Indianapolis Center
Mon 12:18:01 AM 39.9911 -84.0869 89° East 405 466 19,000 -2,083 Descending Indianapolis Center
Mon 12:19:01 AM 39.9928 -83.9433 89° East 393 452 16,900 -1,884 Descending Indianapolis Center
Mon 12:20:02 AM 39.9936 -83.8264 89° East 384 442 15,200 -2,020 Descending Indianapolis Center
Mon 12:20:39 AM 39.9942 -83.7203 90° East 368 423 13,600 -2,082 Descending Indianapolis Center
Mon 12:21:40 AM 39.9903 -83.5911 92° East 355 409 11,800 -1,475 Descending Indianapolis Center
Mon 12:22:41 AM 39.9794 -83.4689 97° East 324 373 10,600 -1,983 Descending Indianapolis Center
Mon 12:23:41 AM 39.9692 -83.3608 97° East 298 343 7,800 -2,281 Descending Indianapolis Center
Mon 12:24:42 AM 39.9725 -83.2631 87° East 248 285 6,000 -1,736 Descending Indianapolis Center
Mon 12:25:42 AM 39.9847 -83.1803 79° East 227 261 4,300 -1,438 Descending Indianapolis Center
Mon 12:26:43 AM 39.9983 -83.1033 77° East 218 251 3,100 -836 Descending Indianapolis Center
Mon 12:27:44 AM 40.0078 -83.0283 81° East 199 229 2,600 -694 Descending Indianapolis Center
Mon 12:28:44 AM 40.0050 -82.9678 93° East 160 184 1,700 -793 Descending Indianapolis Center
Mon 12:29:45 AM 40.0036 -82.9156 92° East 130 150 1,000 -689 Descending Indianapolis Center
Mon 12:32:00 AM 39.9980 -82.8920 90° East  Level Estimated

Login

Don't have an account? Register now (free) for customized features, flight alerts, and more!